Time;durP1;ratioP1;P1;durP2;ratioP2;P2;SDS_P1;SDS_P2;PMS_P1;PMS_P2;Temp;Humidity;BMP_temperature;BMP_pressure;BME280_temperature;BME280_humidity;BME280_pressure;Samples;Min_cycle;Max_cycle;Signal;HPM_P1;HPM_P2
2023/10/22 00:01:21;;;;;;;3.80;1.10;;;13.80;1.00;;;;;;5056944;28;20163;-79
2023/10/22 00:03:46;;;;;;;3.97;1.10;;;13.80;1.00;;;;;;5057423;28;20513;-80
2023/10/22 00:06:12;;;;;;;6.27;1.57;;;13.80;1.00;;;;;;5072945;28;20228;-80
2023/10/22 00:08:37;;;;;;;4.30;1.13;;;13.80;1.00;;;;;;5057657;28;20249;-79
2023/10/22 00:11:03;;;;;;;5.63;1.33;;;13.80;72.80;;;;;;5056099;28;20183;-80
2023/10/22 00:13:30;;;;;;;2.83;1.20;;;13.80;99.90;;;;;;5056260;28;20211;-79
2023/10/22 00:15:56;;;;;;;3.77;1.10;;;13.80;99.90;;;;;;5056110;28;20530;-79
2023/10/22 00:18:22;;;;;;;3.90;1.10;;;13.80;99.90;;;;;;5056445;28;20199;-79
2023/10/22 00:20:47;;;;;;;4.70;1.10;;;13.80;99.90;;;;;;5055814;28;20643;-79
2023/10/22 00:23:13;;;;;;;3.90;1.10;;;13.70;99.90;;;;;;5057455;28;20214;-80
2023/10/22 00:25:38;;;;;;;4.77;1.30;;;13.80;99.90;;;;;;5057466;28;20194;-79
2023/10/22 00:28:04;;;;;;;8.50;1.50;;;13.80;99.90;;;;;;5056148;28;20186;-79
2023/10/22 00:30:30;;;;;;;5.87;1.10;;;13.70;1.00;;;;;;5056206;28;20188;-80
2023/10/22 00:32:56;;;;;;;8.40;1.60;;;13.70;99.90;;;;;;5056123;28;20257;-79
2023/10/22 00:35:22;;;;;;;4.67;1.10;;;13.70;99.90;;;;;;5057889;28;20172;-80
2023/10/22 00:37:47;;;;;;;7.43;1.40;;;13.70;99.90;;;;;;5064626;28;20191;-80
2023/10/22 00:40:14;;;;;;;5.80;1.13;;;13.60;1.00;;;;;;5067987;28;20643;-79
2023/10/22 00:42:39;;;;;;;4.97;1.10;;;13.70;1.00;;;;;;5060641;28;20195;-79
2023/10/22 00:45:05;;;;;;;4.60;1.27;;;13.70;62.30;;;;;;5056839;28;20211;-80
2023/10/22 00:47:33;;;;;;;3.53;1.00;;;13.70;18.40;;;;;;5055957;28;20203;-79
2023/10/22 00:49:59;;;;;;;3.43;0.80;;;13.60;99.90;;;;;;5056981;28;20203;-79
2023/10/22 00:52:26;;;;;;;4.67;1.10;;;13.60;99.90;;;;;;5071634;28;20265;-79
2023/10/22 00:54:52;;;;;;;3.00;0.97;;;13.70;99.90;;;;;;5055990;28;20176;-80
2023/10/22 00:57:19;;;;;;;5.13;1.50;;;13.60;99.90;;;;;;5055294;28;20206;-79
2023/10/22 00:59:45;;;;;;;6.37;1.20;;;13.60;1.00;;;;;;5056763;28;20188;-79
2023/10/22 01:02:11;;;;;;;5.07;0.80;;;13.60;99.90;;;;;;5055253;28;20261;-80
2023/10/22 01:04:37;;;;;;;4.80;1.00;;;13.60;99.90;;;;;;5054995;28;20190;-80
2023/10/22 01:07:05;;;;;;;6.57;1.20;;;13.50;99.90;;;;;;5056963;28;20183;-79
2023/10/22 01:09:30;;;;;;;5.20;1.00;;;13.60;1.00;;;;;;5055276;28;20176;-79
2023/10/22 01:12:04;;;;;;;5.17;1.13;;;13.60;1.00;;;;;;5057631;28;20218;-80
2023/10/22 01:14:30;;;;;;;3.17;0.97;;;13.60;1.00;;;;;;5059749;28;20156;-79
2023/10/22 01:16:56;;;;;;;4.43;1.20;;;13.60;1.00;;;;;;5055669;28;20259;-79
2023/10/22 01:19:22;;;;;;;6.50;1.10;;;13.50;1.00;;;;;;5070587;28;20203;-79
2023/10/22 01:21:47;;;;;;;3.73;1.00;;;13.50;99.90;;;;;;5055230;28;20172;-79
2023/10/22 01:24:13;;;;;;;3.30;1.03;;;13.50;1.60;;;;;;5055843;28;20199;-79
2023/10/22 01:26:43;;;;;;;3.80;0.93;;;13.50;1.00;;;;;;5055651;28;20554;-80
2023/10/22 01:29:08;;;;;;;2.20;0.80;;;13.50;1.00;;;;;;5054295;28;20298;-79
2023/10/22 01:31:34;;;;;;;2.93;0.97;;;13.50;99.90;;;;;;5057106;28;20683;-79
2023/10/22 01:33:59;;;;;;;4.23;1.00;;;13.50;99.90;;;;;;5057605;28;20192;-80
2023/10/22 01:36:25;;;;;;;4.30;0.90;;;13.60;99.90;;;;;;5060202;28;20172;-80
2023/10/22 01:38:51;;;;;;;6.10;1.20;;;13.50;99.90;;;;;;5064791;28;20163;-79
2023/10/22 01:41:16;;;;;;;3.37;1.33;;;13.50;99.90;;;;;;5074554;28;20171;-79
2023/10/22 01:43:42;;;;;;;6.33;1.20;;;13.40;1.00;;;;;;5073915;28;20192;-79
2023/10/22 01:46:07;;;;;;;3.00;0.97;;;13.40;1.00;;;;;;5061825;28;20274;-80
2023/10/22 01:48:33;;;;;;;3.23;1.03;;;13.40;1.00;;;;;;5053678;28;20179;-80
2023/10/22 01:50:58;;;;;;;4.20;1.00;;;13.40;1.00;;;;;;5070225;28;20194;-80
2023/10/22 01:53:24;;;;;;;4.17;1.00;;;13.40;1.00;;;;;;5053720;28;20207;-79
2023/10/22 01:55:50;;;;;;;3.47;1.00;;;13.40;1.00;;;;;;5054916;28;20227;-79
2023/10/22 01:58:15;;;;;;;1.60;0.90;;;13.40;1.00;;;;;;5053258;28;20207;-79
2023/10/22 02:00:41;;;;;;;3.53;0.80;;;13.40;1.00;;;;;;5054792;28;20190;-80
2023/10/22 02:03:06;;;;;;;2.33;0.90;;;13.40;1.00;;;;;;5070178;28;20195;-80
2023/10/22 02:05:33;;;;;;;4.87;0.80;;;13.40;1.00;;;;;;5055312;28;20587;-79
2023/10/22 02:07:59;;;;;;;3.57;0.90;;;13.40;1.00;;;;;;5070439;28;20171;-80
2023/10/22 02:10:25;;;;;;;2.37;0.80;;;13.40;25.10;;;;;;5055069;28;20309;-80
2023/10/22 02:12:50;;;;;;;2.27;0.80;;;13.40;46.00;;;;;;5054921;28;20590;-79
2023/10/22 02:15:16;;;;;;;3.93;0.97;;;13.40;66.20;;;;;;5053637;28;20651;-80
2023/10/22 02:17:42;;;;;;;4.00;0.77;;;13.40;91.20;;;;;;5054196;28;20183;-79
2023/10/22 02:20:09;;;;;;;3.47;1.00;;;13.40;98.70;;;;;;5054002;28;20172;-79
2023/10/22 02:22:36;;;;;;;3.90;0.90;;;13.40;97.10;;;;;;5055038;28;20203;-80
2023/10/22 02:25:02;;;;;;;4.37;0.70;;;13.40;99.90;;;;;;5053445;28;20190;-80
2023/10/22 02:27:27;;;;;;;2.00;0.63;;;13.30;99.90;;;;;;5055521;28;20175;-79
2023/10/22 02:29:53;;;;;;;1.77;0.57;;;13.40;99.90;;;;;;5055460;28;20264;-80
2023/10/22 02:32:18;;;;;;;1.73;0.63;;;13.30;99.90;;;;;;5055201;28;20589;-80
2023/10/22 02:34:44;;;;;;;1.33;0.70;;;13.40;99.90;;;;;;5053354;28;20175;-79
2023/10/22 02:37:10;;;;;;;4.83;1.00;;;13.30;99.90;;;;;;5054181;28;20187;-79
2023/10/22 02:39:35;;;;;;;1.57;0.40;;;13.30;99.90;;;;;;5055293;28;20179;-80
2023/10/22 02:42:01;;;;;;;3.43;0.80;;;13.30;99.90;;;;;;5054321;28;20195;-80
2023/10/22 02:44:27;;;;;;;1.67;0.67;;;13.20;99.90;;;;;;5056271;28;20191;-79
2023/10/22 02:46:52;;;;;;;1.33;0.60;;;13.20;99.90;;;;;;5055138;28;20179;-80
2023/10/22 02:49:18;;;;;;;1.33;0.50;;;13.20;99.90;;;;;;5057022;28;20183;-80
2023/10/22 02:51:43;;;;;;;3.50;0.70;;;13.20;1.00;;;;;;5057359;28;20195;-80
2023/10/22 02:54:09;;;;;;;4.83;0.73;;;13.10;1.00;;;;;;5067097;28;20636;-79
2023/10/22 02:56:34;;;;;;;2.43;0.50;;;13.20;1.00;;;;;;5065984;28;20255;-78
2023/10/22 02:59:00;;;;;;;1.40;0.60;;;13.10;1.00;;;;;;5056765;28;20588;-80
2023/10/22 03:01:26;;;;;;;2.53;0.77;;;13.10;1.00;;;;;;5058031;28;20244;-80
2023/10/22 03:03:52;;;;;;;1.13;0.50;;;13.20;1.00;;;;;;5058058;28;20705;-79
2023/10/22 03:06:18;;;;;;;1.50;0.40;;;13.20;1.00;;;;;;5073420;28;20258;-79
2023/10/22 03:08:44;;;;;;;2.00;0.70;;;13.20;1.00;;;;;;5058266;28;20665;-80
2023/10/22 03:11:19;;;;;;;1.53;0.60;;;13.20;1.00;;;;;;5056471;28;20240;-79
2023/10/22 03:13:46;;;;;;;0.93;0.50;;;13.20;1.00;;;;;;5057689;28;20252;-79
2023/10/22 03:16:14;;;;;;;1.30;0.63;;;13.20;1.00;;;;;;5057007;28;20257;-79
2023/10/22 03:18:41;;;;;;;3.40;0.63;;;13.20;1.00;;;;;;5057731;28;20647;-79
2023/10/22 03:21:19;;;;;;;0.73;0.50;;;13.20;1.00;;;;;;5056251;28;20611;-80
2023/10/22 03:23:46;;;;;;;2.23;0.50;;;13.20;1.00;;;;;;5056220;28;20195;-79
2023/10/22 03:26:15;;;;;;;2.60;0.50;;;13.20;1.00;;;;;;5056270;28;20270;-79
2023/10/22 03:28:41;;;;;;;0.70;0.33;;;13.20;4.40;;;;;;5056313;28;20214;-79
2023/10/22 03:31:07;;;;;;;2.87;0.80;;;13.10;99.90;;;;;;5057822;28;20212;-78
2023/10/22 03:33:33;;;;;;;3.47;0.53;;;13.20;99.90;;;;;;5057442;28;20232;-79
2023/10/22 03:36:00;;;;;;;1.17;0.47;;;13.10;99.90;;;;;;5056417;28;20744;-80
2023/10/22 03:38:26;;;;;;;1.17;0.50;;;13.20;99.90;;;;;;5056141;28;20189;-80
2023/10/22 03:41:04;;;;;;;1.87;0.60;;;13.10;99.90;;;;;;5057795;28;20214;-79
2023/10/22 03:43:31;;;;;;;2.43;0.80;;;13.10;99.90;;;;;;5057631;28;20191;-80
2023/10/22 03:45:58;;;;;;;2.40;0.87;;;13.20;99.90;;;;;;5058165;28;20198;-80
2023/10/22 03:48:24;;;;;;;2.93;0.70;;;13.20;99.90;;;;;;5058386;28;20229;-80
2023/10/22 03:50:50;;;;;;;4.87;0.70;;;13.10;99.90;;;;;;5058058;28;20195;-79
2023/10/22 03:53:15;;;;;;;1.87;0.50;;;13.20;99.90;;;;;;5056031;28;20237;-79
2023/10/22 03:55:41;;;;;;;3.60;0.60;;;13.10;99.90;;;;;;5057847;28;20172;-79
2023/10/22 03:58:06;;;;;;;1.93;0.70;;;13.10;99.90;;;;;;5056317;28;20190;-79
2023/10/22 04:00:32;;;;;;;1.70;0.60;;;13.10;99.90;;;;;;5057032;28;20670;-79
2023/10/22 04:02:59;;;;;;;1.57;0.53;;;13.10;1.00;;;;;;5055736;28;20196;-80
2023/10/22 04:05:24;;;;;;;1.20;0.63;;;13.10;99.90;;;;;;5056174;28;20214;-79
2023/10/22 04:07:50;;;;;;;1.23;0.60;;;13.10;1.00;;;;;;5057347;28;20180;-79
2023/10/22 04:10:16;;;;;;;2.20;0.50;;;13.10;1.00;;;;;;5054640;28;20176;-79
2023/10/22 04:12:42;;;;;;;1.50;0.57;;;13.10;1.00;;;;;;5056642;28;20287;-80
2023/10/22 04:15:08;;;;;;;1.13;0.50;;;13.10;1.00;;;;;;5057030;28;20505;-79
2023/10/22 04:17:34;;;;;;;1.93;0.80;;;13.10;1.00;;;;;;5057176;28;20213;-79
2023/10/22 04:19:59;;;;;;;0.60;0.43;;;13.10;1.00;;;;;;5055969;28;20194;-79
2023/10/22 04:22:26;;;;;;;1.60;0.50;;;13.10;1.00;;;;;;5055749;28;20206;-80
2023/10/22 04:24:52;;;;;;;2.00;0.50;;;13.10;1.00;;;;;;5057212;28;20167;-79
2023/10/22 04:27:17;;;;;;;2.13;0.70;;;13.10;1.00;;;;;;5072088;28;20320;-79
2023/10/22 04:29:46;;;;;;;2.30;0.47;;;13.10;1.00;;;;;;5055057;28;20197;-80
2023/10/22 04:32:12;;;;;;;1.57;0.60;;;13.10;1.00;;;;;;5055106;28;20287;-79
2023/10/22 04:34:38;;;;;;;1.53;0.63;;;13.10;1.00;;;;;;5057193;28;20316;-80
2023/10/22 04:37:04;;;;;;;0.80;0.40;;;13.10;1.00;;;;;;5055669;28;20576;-80
2023/10/22 04:39:30;;;;;;;0.87;0.40;;;13.10;1.00;;;;;;5057354;28;20240;-80
2023/10/22 04:41:56;;;;;;;1.47;0.40;;;13.10;1.00;;;;;;5057291;28;20171;-79
2023/10/22 04:44:22;;;;;;;2.57;0.50;;;13.10;1.00;;;;;;5056268;28;20543;-80
2023/10/22 04:46:49;;;;;;;1.67;0.40;;;13.10;1.00;;;;;;5057076;28;20171;-80
2023/10/22 04:49:14;;;;;;;0.60;0.40;;;13.10;1.00;;;;;;5056818;28;20643;-80
2023/10/22 04:51:40;;;;;;;1.23;0.33;;;13.10;1.00;;;;;;5056624;28;20192;-78
2023/10/22 04:54:05;;;;;;;0.90;0.30;;;13.10;1.00;;;;;;5056398;28;20188;-78
2023/10/22 04:56:32;;;;;;;1.70;0.40;;;13.10;1.00;;;;;;5055887;28;20180;-78
2023/10/22 04:58:57;;;;;;;1.13;0.30;;;13.20;1.00;;;;;;5072639;28;20262;-79
2023/10/22 05:01:23;;;;;;;2.70;0.53;;;13.10;1.00;;;;;;5058836;28;20212;-78
2023/10/22 05:03:48;;;;;;;2.27;0.63;;;13.10;1.00;;;;;;5062906;28;20187;-78
2023/10/22 05:06:14;;;;;;;0.97;0.50;;;13.10;1.00;;;;;;5063547;28;20250;-78
2023/10/22 05:08:40;;;;;;;0.60;0.40;;;13.10;1.00;;;;;;5066394;28;20530;-78
2023/10/22 05:11:11;;;;;;;0.93;0.40;;;13.10;1.00;;;;;;5072831;28;20328;-78
2023/10/22 05:13:36;;;;;;;1.90;0.40;;;13.10;5.20;;;;;;5053980;28;20749;-78
2023/10/22 05:16:02;;;;;;;1.60;0.30;;;13.10;27.80;;;;;;5053935;28;20176;-79
2023/10/22 05:18:28;;;;;;;1.17;0.50;;;13.10;56.80;;;;;;5054815;28;20172;-78
2023/10/22 05:21:00;;;;;;;1.70;0.50;;;13.10;35.70;;;;;;5055243;28;20172;-78
2023/10/22 05:23:26;;;;;;;1.60;0.50;;;13.10;41.50;;;;;;5053735;28;20199;-77
2023/10/22 05:26:09;;;;;;;0.50;0.40;;;13.10;33.90;;;;;;5056049;28;20535;-79
2023/10/22 05:28:34;;;;;;;1.67;0.40;;;13.00;81.10;;;;;;5054055;28;20215;-78
2023/10/22 05:31:00;;;;;;;0.50;0.33;;;13.00;33.40;;;;;;5070624;28;20206;-79
2023/10/22 05:33:26;;;;;;;1.17;0.40;;;13.00;1.00;;;;;;5055402;28;20237;-78
2023/10/22 05:35:51;;;;;;;1.30;0.37;;;13.00;1.00;;;;;;5053787;28;20280;-79
2023/10/22 05:38:17;;;;;;;0.40;0.30;;;13.00;1.00;;;;;;5055282;28;20243;-79
2023/10/22 05:40:42;;;;;;;1.90;0.43;;;12.90;1.00;;;;;;5056716;28;20313;-78
2023/10/22 05:43:08;;;;;;;2.00;0.30;;;12.90;99.90;;;;;;5095999;28;20273;-79
2023/10/22 05:45:34;;;;;;;0.40;0.40;;;12.90;1.00;;;;;;5072729;28;20248;-78
2023/10/22 05:48:00;;;;;;;1.70;0.50;;;12.90;1.00;;;;;;5055994;28;20190;-79
2023/10/22 05:50:26;;;;;;;1.57;0.50;;;12.90;1.00;;;;;;5055630;28;20195;-78
2023/10/22 05:52:51;;;;;;;1.17;0.43;;;12.90;1.00;;;;;;5053992;28;20235;-78
2023/10/22 05:55:18;;;;;;;0.60;0.30;;;12.90;1.00;;;;;;5060867;28;20179;-79
2023/10/22 05:57:45;;;;;;;1.03;0.50;;;12.80;1.00;;;;;;5074338;28;20228;-78
2023/10/22 06:00:11;;;;;;;1.10;0.40;;;12.90;1.00;;;;;;5075513;28;20167;-79
2023/10/22 06:02:37;;;;;;;1.07;0.33;;;12.90;1.00;;;;;;5074094;28;20194;-79
2023/10/22 06:05:03;;;;;;;1.60;0.77;;;12.80;1.00;;;;;;5075541;28;20182;-79
2023/10/22 06:07:29;;;;;;;0.77;0.30;;;12.80;1.00;;;;;;5075339;28;20182;-79
2023/10/22 06:09:54;;;;;;;0.70;0.40;;;12.80;1.00;;;;;;5075066;28;20179;-79
2023/10/22 06:12:20;;;;;;;1.40;0.30;;;12.70;1.00;;;;;;5071566;28;20210;-79
2023/10/22 06:14:45;;;;;;;0.30;0.30;;;12.80;1.00;;;;;;5083488;28;20174;-78
2023/10/22 06:17:11;;;;;;;0.70;0.40;;;12.70;99.90;;;;;;5090102;28;20186;-79
2023/10/22 06:19:36;;;;;;;2.53;0.40;;;12.80;1.00;;;;;;5093866;28;20166;-79
2023/10/22 06:22:02;;;;;;;2.13;0.40;;;12.70;1.00;;;;;;5094970;28;20182;-79
2023/10/22 06:24:28;;;;;;;0.40;0.40;;;12.70;1.00;;;;;;5095072;28;20201;-79
2023/10/22 06:26:53;;;;;;;0.80;0.50;;;12.60;1.00;;;;;;5093536;28;20548;-79
2023/10/22 06:29:19;;;;;;;1.33;0.50;;;12.60;1.00;;;;;;5093168;28;20239;-79
2023/10/22 06:31:44;;;;;;;1.83;0.40;;;12.70;1.00;;;;;;5078150;28;20288;-79
2023/10/22 06:34:10;;;;;;;0.57;0.40;;;12.60;1.00;;;;;;5079265;28;20198;-78
2023/10/22 06:36:35;;;;;;;0.77;0.43;;;12.60;1.00;;;;;;5077799;28;20178;-79
2023/10/22 06:39:01;;;;;;;1.67;0.60;;;12.60;1.00;;;;;;5077931;28;20175;-78
2023/10/22 06:41:26;;;;;;;0.73;0.50;;;12.60;1.00;;;;;;5079857;28;20174;-79
2023/10/22 06:43:53;;;;;;;0.80;0.50;;;12.60;1.00;;;;;;5081133;28;20286;-79
2023/10/22 06:46:19;;;;;;;1.07;0.50;;;12.60;1.00;;;;;;5078670;28;20174;-79
2023/10/22 06:48:45;;;;;;;0.77;0.43;;;12.60;1.00;;;;;;5093627;28;20182;-79
2023/10/22 06:51:12;;;;;;;1.73;0.57;;;12.60;1.00;;;;;;5099112;28;20167;-79
2023/10/22 06:53:39;;;;;;;1.97;0.50;;;12.70;1.00;;;;;;5099109;28;20206;-79
2023/10/22 06:56:06;;;;;;;1.53;0.50;;;12.60;1.00;;;;;;5097901;28;20307;-79
2023/10/22 06:58:32;;;;;;;1.80;0.40;;;12.60;99.90;;;;;;5097786;28;20175;-79
2023/10/22 07:01:12;;;;;;;1.10;0.50;;;12.50;99.90;;;;;;5098047;28;20651;-79
2023/10/22 07:03:46;;;;;;;1.13;0.60;;;12.60;1.00;;;;;;5097225;28;20214;-79
2023/10/22 07:06:12;;;;;;;2.23;0.50;;;12.60;1.00;;;;;;5097097;28;20186;-79
2023/10/22 07:08:38;;;;;;;1.20;0.60;;;12.60;1.00;;;;;;5094647;28;20190;-78
2023/10/22 07:11:03;;;;;;;1.03;0.50;;;12.60;1.00;;;;;;5098977;28;20170;-79
2023/10/22 07:13:29;;;;;;;1.50;0.43;;;12.50;1.00;;;;;;5097913;28;20635;-80
2023/10/22 07:15:55;;;;;;;1.77;0.60;;;12.50;1.00;;;;;;5096049;28;20190;-79
2023/10/22 07:18:21;;;;;;;0.93;0.77;;;12.50;1.00;;;;;;5097736;28;20269;-79
2023/10/22 07:20:48;;;;;;;0.30;0.30;;;12.60;1.00;;;;;;5105240;28;20189;-79
2023/10/22 07:23:13;;;;;;;0.53;0.40;;;12.50;1.00;;;;;;5100364;28;20629;-79
2023/10/22 07:25:39;;;;;;;2.80;0.77;;;12.50;1.00;;;;;;5098533;28;20175;-79
2023/10/22 07:28:05;;;;;;;0.40;0.40;;;12.60;1.00;;;;;;5096750;28;20186;-79
2023/10/22 07:30:31;;;;;;;0.80;0.43;;;12.50;1.00;;;;;;5096900;28;20166;-78
2023/10/22 07:32:58;;;;;;;0.60;0.43;;;12.50;1.00;;;;;;5098510;28;20210;-79
2023/10/22 07:35:24;;;;;;;3.37;0.70;;;12.50;99.90;;;;;;5097389;28;20227;-79
2023/10/22 07:37:49;;;;;;;0.90;0.50;;;12.50;99.90;;;;;;5098609;28;20166;-78
2023/10/22 07:40:17;;;;;;;0.87;0.40;;;12.60;99.90;;;;;;5098052;28;20177;-79
2023/10/22 07:42:44;;;;;;;0.80;0.50;;;12.60;99.90;;;;;;5098141;28;20205;-79
2023/10/22 07:45:09;;;;;;;1.37;0.40;;;12.60;1.00;;;;;;5069569;28;20195;-79
2023/10/22 07:47:37;;;;;;;1.70;0.40;;;12.60;1.00;;;;;;5057667;28;20187;-79
2023/10/22 07:50:05;;;;;;;3.33;0.97;;;12.60;1.00;;;;;;5056118;28;20209;-79
2023/10/22 07:52:31;;;;;;;1.60;0.43;;;12.60;1.00;;;;;;5057512;28;20253;-79
2023/10/22 07:54:57;;;;;;;1.67;0.50;;;12.60;1.00;;;;;;5072966;28;20179;-79
2023/10/22 07:57:25;;;;;;;1.90;0.50;;;12.60;1.00;;;;;;5058606;28;20527;-79
2023/10/22 07:59:51;;;;;;;0.83;0.50;;;12.70;1.00;;;;;;5058495;28;20229;-79
2023/10/22 08:02:17;;;;;;;1.10;0.50;;;12.70;1.00;;;;;;5057940;28;20187;-79
2023/10/22 08:04:42;;;;;;;3.70;0.63;;;12.70;1.00;;;;;;5057410;28;20265;-79
2023/10/22 08:07:08;;;;;;;0.40;0.40;;;12.70;1.00;;;;;;5057956;28;20183;-79
2023/10/22 08:09:33;;;;;;;2.70;0.40;;;12.70;1.00;;;;;;5055728;28;20172;-79
2023/10/22 08:11:59;;;;;;;0.83;0.53;;;12.70;1.00;;;;;;5057650;28;20195;-79
2023/10/22 08:14:25;;;;;;;1.73;0.70;;;12.80;1.00;;;;;;5058537;28;20218;-79
2023/10/22 08:16:50;;;;;;;0.70;0.50;;;12.70;1.00;;;;;;5070326;28;20553;-79
2023/10/22 08:19:16;;;;;;;1.57;0.43;;;12.80;1.00;;;;;;5078709;28;20167;-79
2023/10/22 08:21:42;;;;;;;2.47;0.60;;;12.80;1.00;;;;;;5078820;28;20196;-80
2023/10/22 08:24:08;;;;;;;4.30;0.70;;;12.80;1.00;;;;;;5081481;28;20254;-80
2023/10/22 08:26:33;;;;;;;1.27;0.60;;;12.80;1.00;;;;;;5079443;28;20182;-80
2023/10/22 08:28:59;;;;;;;0.97;0.70;;;12.90;1.00;;;;;;5077900;28;20183;-79
2023/10/22 08:31:25;;;;;;;1.40;0.63;;;12.90;1.00;;;;;;5077072;28;20194;-78
2023/10/22 08:33:50;;;;;;;3.60;1.13;;;12.90;1.00;;;;;;5073169;28;20210;-79
2023/10/22 08:36:16;;;;;;;2.83;0.60;;;12.90;1.00;;;;;;5090427;28;20174;-78
2023/10/22 08:38:42;;;;;;;2.20;0.50;;;12.90;1.00;;;;;;5080635;28;20210;-78
2023/10/22 08:41:21;;;;;;;3.40;0.60;;;12.90;1.00;;;;;;5082342;28;20206;-78
2023/10/22 08:43:48;;;;;;;0.70;0.50;;;12.90;1.00;;;;;;5099536;28;20198;-79
2023/10/22 08:46:14;;;;;;;1.30;0.67;;;12.90;1.00;;;;;;5103099;28;20214;-78
2023/10/22 08:48:40;;;;;;;1.67;0.80;;;12.90;1.00;;;;;;5106840;28;20170;-79
2023/10/22 08:51:08;;;;;;;2.27;0.83;;;13.00;1.00;;;;;;5105109;28;20349;-78
2023/10/22 08:53:34;;;;;;;2.00;0.80;;;13.00;1.00;;;;;;5107480;28;20201;-79
2023/10/22 08:56:01;;;;;;;1.83;0.60;;;13.00;1.00;;;;;;5105637;28;20178;-79
2023/10/22 08:58:27;;;;;;;1.40;0.50;;;13.00;1.00;;;;;;5105572;28;20170;-79
2023/10/22 09:00:53;;;;;;;2.27;0.60;;;13.10;1.00;;;;;;5108061;28;20178;-79
2023/10/22 09:03:20;;;;;;;3.03;1.17;;;13.10;1.00;;;;;;5105273;28;20267;-79
2023/10/22 09:05:46;;;;;;;1.40;0.60;;;13.10;1.00;;;;;;5107034;28;20184;-79
2023/10/22 09:08:12;;;;;;;2.27;0.80;;;13.20;1.00;;;;;;5107823;28;20185;-79
2023/10/22 09:10:38;;;;;;;1.00;0.30;;;13.20;1.00;;;;;;5107001;28;20178;-79
2023/10/22 09:13:07;;;;;;;1.60;0.57;;;13.20;1.00;;;;;;5103107;28;20213;-78
2023/10/22 09:15:44;;;;;;;3.10;0.80;;;13.30;1.00;;;;;;5107574;28;20177;-79
2023/10/22 09:18:10;;;;;;;3.80;0.70;;;13.30;1.00;;;;;;5108029;28;20605;-79
2023/10/22 09:20:36;;;;;;;2.57;0.70;;;13.30;1.00;;;;;;5107544;28;20175;-79
2023/10/22 09:23:35;;;;;;;4.23;0.80;;;13.40;1.00;;;;;;5109039;28;20186;-79
2023/10/22 09:26:00;;;;;;;0.83;0.53;;;13.40;1.00;;;;;;5097605;28;20208;-79
2023/10/22 09:28:28;;;;;;;3.30;0.67;;;13.50;1.00;;;;;;5105867;28;20272;-79
2023/10/22 09:30:57;;;;;;;1.17;0.60;;;13.50;1.00;;;;;;5108248;28;20174;-79
2023/10/22 09:33:35;;;;;;;1.53;0.70;;;13.60;1.00;;;;;;5107613;28;20260;-79
2023/10/22 09:36:11;;;;;;;4.23;0.80;;;13.60;1.00;;;;;;5106976;28;20491;-79
2023/10/22 09:38:51;;;;;;;1.23;0.60;;;13.60;1.00;;;;;;5108194;28;20216;-80
2023/10/22 09:41:23;;;;;;;4.73;0.50;;;13.70;1.00;;;;;;5107043;28;20269;-80
2023/10/22 09:43:53;;;;;;;1.83;0.63;;;13.80;1.00;;;;;;5103036;28;20205;-79
2023/10/22 09:46:19;;;;;;;3.10;0.80;;;13.90;1.00;;;;;;5105740;28;20182;-79
2023/10/22 09:48:47;;;;;;;2.40;0.80;;;13.80;99.90;;;;;;5105290;28;20178;-81
2023/10/22 09:51:15;;;;;;;0.87;0.60;;;13.90;99.90;;;;;;5107439;28;20181;-80
2023/10/22 09:53:46;;;;;;;2.50;0.77;;;13.80;99.90;;;;;;5107204;28;20248;-80
2023/10/22 09:56:17;;;;;;;1.47;0.80;;;14.00;99.90;;;;;;5105018;28;20500;-80
2023/10/22 09:58:43;;;;;;;3.33;0.60;;;14.00;99.90;;;;;;5066333;28;20214;-80
2023/10/22 10:01:10;;;;;;;5.27;0.70;;;14.00;99.90;;;;;;5060786;28;20179;-78
2023/10/22 10:03:37;;;;;;;2.80;1.00;;;14.20;99.90;;;;;;5081581;28;20292;-79
2023/10/22 10:06:07;;;;;;;2.00;0.60;;;14.10;99.90;;;;;;5095963;28;20197;-78
2023/10/22 10:08:38;;;;;;;1.27;0.50;;;14.10;99.90;;;;;;5094668;28;20182;-78
2023/10/22 10:11:08;;;;;;;1.33;0.67;;;14.20;99.90;;;;;;5096594;28;20296;-79
2023/10/22 10:13:35;;;;;;;2.17;0.60;;;14.20;99.90;;;;;;5096663;28;20201;-79
2023/10/22 10:16:05;;;;;;;1.03;0.50;;;14.20;99.90;;;;;;5097204;28;20170;-79
2023/10/22 10:18:59;;;;;;;1.67;0.60;;;14.20;99.90;;;;;;5093989;28;20548;-79
2023/10/22 10:21:48;;;;;;;1.40;0.50;;;14.20;99.90;;;;;;5096371;28;20649;-78
2023/10/22 10:24:25;;;;;;;1.97;0.60;;;14.20;99.90;;;;;;5097848;28;20202;-79
2023/10/22 10:26:56;;;;;;;1.40;0.60;;;14.20;99.90;;;;;;5098168;28;20158;-79
2023/10/22 10:29:24;;;;;;;1.33;0.50;;;14.30;99.90;;;;;;5097630;28;20623;-78
2023/10/22 10:31:51;;;;;;;1.47;0.60;;;14.30;99.90;;;;;;5096858;28;20181;-79
2023/10/22 10:34:36;;;;;;;1.10;0.43;;;14.30;99.90;;;;;;5096107;28;20298;-79
2023/10/22 10:37:17;;;;;;;2.87;0.50;;;14.30;1.00;;;;;;5096615;28;20249;-79
2023/10/22 10:39:49;;;;;;;0.63;0.57;;;14.40;99.90;;;;;;5096779;28;20159;-79
2023/10/22 10:42:36;;;;;;;2.13;0.53;;;14.40;99.90;;;;;;5096581;28;20192;-78
2023/10/22 10:45:06;;;;;;;2.20;0.70;;;14.40;99.90;;;;;;5098945;28;20179;-79
2023/10/22 10:47:34;;;;;;;2.20;0.80;;;14.40;99.90;;;;;;5097702;28;20717;-79
2023/10/22 10:50:10;;;;;;;2.30;0.87;;;14.50;99.90;;;;;;5096501;28;20200;-79
2023/10/22 10:52:41;;;;;;;1.83;0.50;;;14.50;99.90;;;;;;5102588;28;20205;-80
2023/10/22 10:55:19;;;;;;;0.73;0.50;;;14.50;99.90;;;;;;5100991;28;20178;-80
2023/10/22 10:57:55;;;;;;;4.37;1.30;;;14.50;1.00;;;;;;5101612;28;20249;-80
2023/10/22 11:00:28;;;;;;;1.67;0.60;;;14.50;1.00;;;;;;5103465;28;20614;-80
2023/10/22 11:02:56;;;;;;;2.50;0.63;;;14.60;1.00;;;;;;5101739;28;20302;-80
2023/10/22 11:05:39;;;;;;;3.20;0.60;;;14.60;1.00;;;;;;5095972;28;20198;-80
2023/10/22 11:08:18;;;;;;;2.40;0.87;;;14.70;1.00;;;;;;5081070;28;20171;-80
2023/10/22 11:10:45;;;;;;;1.40;0.83;;;14.70;1.00;;;;;;5081870;28;20178;-80
2023/10/22 11:13:11;;;;;;;1.47;0.63;;;14.70;1.00;;;;;;5084742;28;20529;-80
2023/10/22 11:15:38;;;;;;;1.47;0.70;;;14.70;99.90;;;;;;5101955;28;20186;-80
2023/10/22 11:18:11;;;;;;;1.60;0.97;;;14.70;1.00;;;;;;5101796;28;20171;-80
2023/10/22 11:20:38;;;;;;;3.77;0.90;;;14.80;99.90;;;;;;5106195;28;20170;-80
2023/10/22 11:23:18;;;;;;;2.67;0.80;;;14.70;99.90;;;;;;5106823;28;20645;-80
2023/10/22 11:25:44;;;;;;;2.50;0.60;;;14.70;99.90;;;;;;5105984;28;20559;-80
2023/10/22 11:28:10;;;;;;;4.43;1.00;;;14.70;99.90;;;;;;5103917;28;20190;-80
2023/10/22 11:30:37;;;;;;;1.67;0.97;;;14.80;99.90;;;;;;5106021;28;20166;-80
2023/10/22 11:33:07;;;;;;;2.27;1.00;;;14.80;99.90;;;;;;5106409;28;20214;-79
2023/10/22 11:35:33;;;;;;;3.33;0.97;;;14.80;99.90;;;;;;5108007;28;20250;-79
2023/10/22 11:37:59;;;;;;;1.27;0.83;;;14.90;99.90;;;;;;5109358;28;20192;-80
2023/10/22 11:40:39;;;;;;;2.70;1.70;;;14.90;99.90;;;;;;5108931;28;20238;-80
2023/10/22 11:43:16;;;;;;;2.43;0.80;;;14.90;99.90;;;;;;5075929;28;20211;-80
2023/10/22 11:45:55;;;;;;;3.77;0.80;;;14.90;1.00;;;;;;5073513;28;20255;-80
2023/10/22 11:48:24;;;;;;;3.03;0.57;;;14.90;1.30;;;;;;5066035;28;20167;-79
2023/10/22 11:50:57;;;;;;;0.90;0.50;;;14.90;1.00;;;;;;5066188;28;20172;-79
2023/10/22 11:53:29;;;;;;;1.33;0.60;;;14.90;99.90;;;;;;5063996;28;20221;-79
2023/10/22 11:55:54;;;;;;;1.50;0.70;;;14.90;99.90;;;;;;5087321;28;20196;-80
2023/10/22 11:58:24;;;;;;;3.20;0.90;;;14.90;99.90;;;;;;5106352;28;20179;-79
2023/10/22 12:00:51;;;;;;;1.33;0.50;;;15.00;99.90;;;;;;5104427;28;20201;-79
2023/10/22 12:03:18;;;;;;;1.27;0.60;;;15.00;1.00;;;;;;5106758;28;20224;-79
2023/10/22 12:05:45;;;;;;;1.60;0.70;;;15.00;99.90;;;;;;5106953;28;20181;-77
2023/10/22 12:08:10;;;;;;;2.73;0.70;;;15.00;99.90;;;;;;5106697;28;20174;-79
2023/10/22 12:10:36;;;;;;;3.33;0.87;;;15.10;1.00;;;;;;5103163;28;20183;-79
2023/10/22 12:13:02;;;;;;;2.87;0.63;;;15.10;99.90;;;;;;5106787;28;20210;-79
2023/10/22 12:15:28;;;;;;;2.33;0.97;;;15.10;99.90;;;;;;5108576;28;20159;-79
2023/10/22 12:17:55;;;;;;;1.73;0.90;;;15.10;80.70;;;;;;5104726;28;20162;-79
2023/10/22 12:20:21;;;;;;;3.57;1.60;;;15.10;99.90;;;;;;5105919;28;20292;-79
2023/10/22 12:22:47;;;;;;;2.70;0.90;;;15.20;99.90;;;;;;5104666;28;20666;-79
2023/10/22 12:25:12;;;;;;;1.23;0.70;;;15.30;99.90;;;;;;5104051;28;20184;-79
2023/10/22 12:27:38;;;;;;;2.33;0.77;;;15.30;1.00;;;;;;5103550;28;20178;-80
2023/10/22 12:30:05;;;;;;;2.87;0.60;;;15.30;99.90;;;;;;5101991;28;20190;-79
2023/10/22 12:32:30;;;;;;;1.63;0.67;;;15.30;99.90;;;;;;5103497;28;20226;-80
2023/10/22 12:34:56;;;;;;;2.10;0.73;;;15.30;99.90;;;;;;5104404;28;20178;-79
2023/10/22 12:37:21;;;;;;;2.23;1.17;;;15.30;99.90;;;;;;5105946;28;20536;-78
2023/10/22 12:39:47;;;;;;;2.40;1.50;;;15.30;99.90;;;;;;5105600;28;20171;-79
2023/10/22 12:42:13;;;;;;;2.57;1.17;;;15.40;99.90;;;;;;5102492;28;20208;-79
2023/10/22 12:44:47;;;;;;;2.40;1.77;;;15.40;99.90;;;;;;5100359;28;20198;-79
2023/10/22 12:47:13;;;;;;;4.30;1.37;;;15.50;1.00;;;;;;5103471;28;20319;-79
2023/10/22 12:49:43;;;;;;;2.30;0.80;;;15.30;99.90;;;;;;5103547;28;20182;-79
2023/10/22 12:52:13;;;;;;;1.20;0.50;;;15.40;99.90;;;;;;5104674;28;20273;-79
2023/10/22 12:54:40;;;;;;;4.53;2.03;;;15.60;99.90;;;;;;5102843;28;20189;-79